createdAt,value
2019-03-10T00:00:27.749Z,90.90
2019-03-10T00:03:30.021Z,90.90
2019-03-10T00:06:32.284Z,90.80
2019-03-10T00:09:34.548Z,90.90
2019-03-10T00:12:36.832Z,90.80
2019-03-10T00:15:39.144Z,91.00
2019-03-10T00:18:41.403Z,90.90
2019-03-10T00:21:43.694Z,91.10
2019-03-10T00:24:46.019Z,91.20
2019-03-10T00:27:48.264Z,91.00
2019-03-10T00:30:50.514Z,90.80
2019-03-10T00:33:52.763Z,90.20
2019-03-10T00:36:55.007Z,90.60
2019-03-10T00:42:13.357Z,90.50
2019-03-10T00:45:27.739Z,90.30
2019-03-10T00:48:44.102Z,90.70
2019-03-10T00:51:56.583Z,90.80
2019-03-10T00:54:58.870Z,91.00
2019-03-10T00:58:01.170Z,90.80
2019-03-10T01:01:03.491Z,90.90
2019-03-10T01:04:05.751Z,90.70
2019-03-10T01:07:08.071Z,91.30
2019-03-10T01:10:10.399Z,91.10
2019-03-10T01:13:12.678Z,91.10
2019-03-10T01:16:15.034Z,91.10
2019-03-10T01:19:17.436Z,90.90
2019-03-10T01:22:19.840Z,90.60
2019-03-10T01:25:22.067Z,90.80
2019-03-10T01:28:24.419Z,91.30
2019-03-10T01:31:35.633Z,91.40
2019-03-10T01:35:13.686Z,91.60
2019-03-10T01:38:15.909Z,91.80
2019-03-10T01:41:18.158Z,92.00
2019-03-10T01:44:20.441Z,91.90
2019-03-10T01:47:22.704Z,92.00
2019-03-10T01:50:25.135Z,92.30
2019-03-10T01:53:27.375Z,92.40
2019-03-10T01:56:29.617Z,92.40
2019-03-10T01:59:31.911Z,92.60
2019-03-10T02:02:34.252Z,92.80
2019-03-10T02:05:36.516Z,93.00
2019-03-10T02:08:38.831Z,92.80
2019-03-10T02:11:41.087Z,93.00
2019-03-10T02:14:43.381Z,93.40
2019-03-10T02:17:45.651Z,93.20
2019-03-10T02:20:47.867Z,93.20
2019-03-10T02:23:50.131Z,93.40
2019-03-10T02:26:52.455Z,93.60
2019-03-10T02:29:54.730Z,93.50
2019-03-10T02:32:57.051Z,93.70
2019-03-10T02:35:59.300Z,93.70
2019-03-10T02:39:01.544Z,93.90
2019-03-10T02:42:05.264Z,94.00
2019-03-10T02:45:07.972Z,93.90
2019-03-10T02:48:10.298Z,94.20
2019-03-10T02:51:12.553Z,94.30
2019-03-10T02:54:14.814Z,94.60
2019-03-10T02:57:17.097Z,94.70
2019-03-10T03:00:19.371Z,95.10
2019-03-10T03:03:21.670Z,95.30
2019-03-10T03:06:23.949Z,95.60
2019-03-10T03:09:26.376Z,96.10
2019-03-10T03:12:28.612Z,96.30
2019-03-10T03:15:30.902Z,96.90
2019-03-10T03:18:33.111Z,96.10
2019-03-10T03:21:43.039Z,96.00
2019-03-10T03:24:37.666Z,96.10
2019-03-10T03:27:39.924Z,92.60
2019-03-10T03:30:42.198Z,91.50
2019-03-10T03:33:44.441Z,85.10
2019-03-10T03:36:46.695Z,80.40
2019-03-10T03:39:50.912Z,76.70
2019-03-10T03:42:53.155Z,77.50
2019-03-10T03:45:55.424Z,80.00
2019-03-10T03:48:57.679Z,83.40
2019-03-10T03:52:00.006Z,85.10
2019-03-10T03:55:02.310Z,90.40
2019-03-10T03:58:04.551Z,91.30
2019-03-10T04:01:11.910Z,94.90
2019-03-10T04:04:14.194Z,94.50
2019-03-10T04:07:16.448Z,96.10
2019-03-10T04:10:18.721Z,95.50
2019-03-10T04:13:20.953Z,96.70
2019-03-10T04:16:23.270Z,97.40
2019-03-10T04:19:25.512Z,97.00
2019-03-10T04:22:27.815Z,97.70
2019-03-10T04:25:30.127Z,99.00
2019-03-10T04:28:32.435Z,98.60
2019-03-10T04:31:35.143Z,97.10
2019-03-10T04:34:37.437Z,97.10
2019-03-10T04:37:39.654Z,99.90
2019-03-10T04:40:41.898Z,99.90
2019-03-10T04:43:44.120Z,99.90
2019-03-10T04:46:46.399Z,99.90
2019-03-10T04:49:48.921Z,99.90
2019-03-10T04:52:51.291Z,99.90
2019-03-10T04:55:59.279Z,99.90
2019-03-10T04:59:01.550Z,99.90
2019-03-10T05:02:03.799Z,99.90
2019-03-10T05:05:06.169Z,99.90
2019-03-10T05:08:08.416Z,99.90
2019-03-10T05:11:10.753Z,99.90
2019-03-10T05:14:12.997Z,99.90
2019-03-10T05:17:15.256Z,99.90
2019-03-10T05:20:17.532Z,99.90
2019-03-10T05:23:28.117Z,99.90
2019-03-10T05:26:30.383Z,99.90
2019-03-10T05:29:32.659Z,99.90
2019-03-10T05:32:34.947Z,99.90
2019-03-10T05:35:37.163Z,99.90
2019-03-10T05:38:39.402Z,99.90
2019-03-10T05:41:41.619Z,99.90
2019-03-10T05:44:43.831Z,99.90
2019-03-10T05:47:46.025Z,99.90
2019-03-10T05:50:48.250Z,99.90
2019-03-10T05:53:50.536Z,99.90
2019-03-10T05:56:52.782Z,99.90
2019-03-10T05:59:54.991Z,99.90
2019-03-10T06:02:57.263Z,99.90
2019-03-10T06:05:59.454Z,99.90
2019-03-10T06:09:01.718Z,99.90
2019-03-10T06:12:03.961Z,99.90
2019-03-10T06:15:06.291Z,99.90
2019-03-10T06:18:13.701Z,99.90
2019-03-10T06:21:10.752Z,99.90
2019-03-10T06:24:12.959Z,99.90
2019-03-10T06:27:15.190Z,99.90
2019-03-10T06:30:17.483Z,99.90
2019-03-10T06:33:19.757Z,99.90
2019-03-10T06:36:21.991Z,99.90
2019-03-10T06:39:24.188Z,99.90
2019-03-10T06:42:26.427Z,99.90
2019-03-10T06:45:28.654Z,99.90
2019-03-10T06:48:30.866Z,99.90
2019-03-10T06:51:33.097Z,99.90
2019-03-10T06:54:35.315Z,99.90
2019-03-10T06:57:37.555Z,99.90
2019-03-10T07:00:39.790Z,99.90
2019-03-10T07:03:42.072Z,99.90
2019-03-10T07:06:44.293Z,99.90
2019-03-10T07:09:46.543Z,99.90
2019-03-10T07:12:48.731Z,99.90
2019-03-10T07:15:50.955Z,99.90
2019-03-10T07:18:53.163Z,99.90
2019-03-10T07:21:55.355Z,99.90
2019-03-10T07:24:57.576Z,99.90
2019-03-10T07:28:05.260Z,99.90
2019-03-10T07:31:13.191Z,99.90
2019-03-10T07:34:22.808Z,99.90
2019-03-10T07:37:29.603Z,99.90
2019-03-10T07:40:37.543Z,99.90
2019-03-10T07:43:47.228Z,99.90
2019-03-10T07:46:56.889Z,99.90
2019-03-10T07:50:04.635Z,99.90
2019-03-10T07:53:12.275Z,99.90
2019-03-10T07:56:20.228Z,99.90
2019-03-10T07:59:27.081Z,99.90
2019-03-10T08:02:35.785Z,99.90
2019-03-10T08:05:48.527Z,99.90
2019-03-10T08:09:00.535Z,99.90
2019-03-10T08:12:06.107Z,99.90
2019-03-10T08:15:12.957Z,99.90
2019-03-10T08:18:21.583Z,99.90
2019-03-10T08:21:32.243Z,99.90
2019-03-10T08:24:40.867Z,99.90
2019-03-10T08:27:48.640Z,99.90
2019-03-10T08:30:58.382Z,99.90
2019-03-10T08:34:12.152Z,99.90
2019-03-10T08:37:20.696Z,99.90
2019-03-10T08:40:37.471Z,99.90
2019-03-10T08:43:46.067Z,99.90
2019-03-10T08:46:53.867Z,99.90
2019-03-10T08:50:08.615Z,99.90
2019-03-10T08:53:18.352Z,99.90
2019-03-10T08:56:26.103Z,99.90
2019-03-10T08:59:35.907Z,99.90
2019-03-10T09:02:42.741Z,99.90
2019-03-10T09:05:50.647Z,99.90
2019-03-10T09:08:58.623Z,99.90
2019-03-10T09:12:12.340Z,99.90
2019-03-10T09:15:19.960Z,99.90
2019-03-10T09:19:33.874Z,99.90
2019-03-10T09:22:42.924Z,99.90
2019-03-10T09:25:50.707Z,99.90
2019-03-10T09:28:59.310Z,99.90
2019-03-10T09:32:09.001Z,99.90
2019-03-10T09:35:20.475Z,99.90
2019-03-10T09:38:33.124Z,99.90
2019-03-10T09:41:40.949Z,99.90
2019-03-10T09:44:51.579Z,99.90
2019-03-10T09:47:58.372Z,99.90
2019-03-10T09:51:05.988Z,99.90
2019-03-10T09:54:13.723Z,99.90
2019-03-10T09:57:21.341Z,99.90
2019-03-10T10:00:30.091Z,99.90
2019-03-10T10:03:39.875Z,99.90
2019-03-10T10:07:03.644Z,99.90
2019-03-10T10:10:15.635Z,99.90
2019-03-10T10:13:23.447Z,99.90
2019-03-10T10:16:32.127Z,99.90
2019-03-10T10:19:41.878Z,99.90
2019-03-10T10:22:50.704Z,99.90
2019-03-10T10:25:58.607Z,99.90
2019-03-10T10:29:11.399Z,99.90
2019-03-10T10:32:19.205Z,99.90
2019-03-10T10:35:32.139Z,99.90
2019-03-10T10:38:39.783Z,99.90
2019-03-10T10:42:17.528Z,99.90
2019-03-10T10:45:33.360Z,99.90
2019-03-10T10:48:40.443Z,99.90
2019-03-10T10:51:49.022Z,99.90
2019-03-10T10:55:02.281Z,99.90
2019-03-10T10:58:12.026Z,99.90
2019-03-10T11:01:22.820Z,99.90
2019-03-10T11:04:30.667Z,99.90
2019-03-10T11:07:37.572Z,99.90
2019-03-10T11:10:48.485Z,99.90
2019-03-10T11:13:56.130Z,99.90
2019-03-10T11:17:04.980Z,99.90
2019-03-10T11:20:15.147Z,99.90
2019-03-10T11:23:52.908Z,99.90
2019-03-10T11:27:01.535Z,99.90
2019-03-10T11:30:19.952Z,99.90
2019-03-10T11:33:32.643Z,99.90
2019-03-10T11:36:40.323Z,99.90
2019-03-10T11:40:05.134Z,99.90
2019-03-10T11:43:11.983Z,99.90
2019-03-10T11:46:27.932Z,99.90
2019-03-10T11:49:34.752Z,99.90
2019-03-10T11:52:57.546Z,99.90
2019-03-10T11:56:05.218Z,99.90
2019-03-10T11:59:11.515Z,99.90
2019-03-10T12:02:25.132Z,99.90
2019-03-10T12:05:33.740Z,99.90
2019-03-10T12:08:41.627Z,99.90
2019-03-10T12:11:43.921Z,99.90
2019-03-10T12:14:46.143Z,99.90
2019-03-10T12:17:48.385Z,99.90
2019-03-10T12:20:50.616Z,99.90
2019-03-10T12:23:52.846Z,99.90
2019-03-10T12:26:55.104Z,99.90
2019-03-10T12:29:57.328Z,99.90
2019-03-10T12:32:59.620Z,99.90
2019-03-10T12:36:01.846Z,99.90
2019-03-10T12:39:06.680Z,99.90
2019-03-10T12:42:08.908Z,99.90
2019-03-10T12:45:11.394Z,99.90
2019-03-10T12:48:13.651Z,99.90
2019-03-10T12:51:15.912Z,99.90
2019-03-10T12:54:18.149Z,99.90
2019-03-10T12:57:20.379Z,99.90
2019-03-10T13:00:22.644Z,99.90
2019-03-10T13:03:24.899Z,99.90
2019-03-10T13:06:27.191Z,99.90
2019-03-10T13:09:29.561Z,99.90
2019-03-10T13:12:31.832Z,99.90
2019-03-10T13:15:34.123Z,99.90
2019-03-10T13:18:36.361Z,99.90
2019-03-10T13:21:38.709Z,99.90
2019-03-10T13:24:40.835Z,99.90
2019-03-10T13:27:43.097Z,99.90
2019-03-10T13:30:45.318Z,99.90
2019-03-10T13:33:47.575Z,99.90
2019-03-10T13:36:49.861Z,97.60
2019-03-10T13:39:52.072Z,98.10
2019-03-10T13:42:54.319Z,99.90
2019-03-10T13:45:56.521Z,99.10
2019-03-10T13:48:58.799Z,95.90
2019-03-10T13:52:01.031Z,95.30
2019-03-10T13:55:03.626Z,94.40
2019-03-10T13:58:05.892Z,92.80
2019-03-10T14:01:08.181Z,92.50
2019-03-10T14:04:10.417Z,91.90
2019-03-10T14:07:12.620Z,93.00
2019-03-10T14:10:14.883Z,90.00
2019-03-10T14:13:17.155Z,89.00
2019-03-10T14:16:19.455Z,87.60
2019-03-10T14:19:22.139Z,84.90
2019-03-10T14:22:26.305Z,83.90
2019-03-10T14:25:38.829Z,83.90
2019-03-10T14:28:41.268Z,85.80
2019-03-10T14:31:43.575Z,85.80
2019-03-10T14:34:45.793Z,83.90
2019-03-10T14:37:48.259Z,83.40
2019-03-10T14:40:50.802Z,82.60
2019-03-10T14:43:53.099Z,83.40
2019-03-10T14:46:55.332Z,82.40
2019-03-10T14:49:57.568Z,83.10
2019-03-10T14:52:59.841Z,84.00
2019-03-10T14:56:02.079Z,85.10
2019-03-10T14:59:04.365Z,97.90
2019-03-10T15:02:06.616Z,93.80
2019-03-10T15:05:08.925Z,90.60
2019-03-10T15:08:11.199Z,90.90
2019-03-10T15:11:13.449Z,90.50
2019-03-10T15:14:15.739Z,88.80
2019-03-10T15:17:18.018Z,86.30
2019-03-10T15:20:21.688Z,88.70
2019-03-10T15:23:22.939Z,88.20
2019-03-10T15:26:25.199Z,90.40
2019-03-10T15:29:27.480Z,97.10
2019-03-10T15:32:29.699Z,98.50
2019-03-10T15:35:31.943Z,99.90
2019-03-10T15:38:34.155Z,99.90
2019-03-10T15:41:36.400Z,99.90
2019-03-10T15:44:38.667Z,92.90
2019-03-10T15:47:40.915Z,96.30
2019-03-10T15:50:43.232Z,96.20
2019-03-10T15:53:45.468Z,93.30
2019-03-10T15:56:48.134Z,92.10
2019-03-10T15:59:50.393Z,90.40
2019-03-10T16:02:52.726Z,90.50
2019-03-10T16:05:55.215Z,90.10
2019-03-10T16:08:57.587Z,90.50
2019-03-10T16:11:59.873Z,91.20
2019-03-10T16:15:02.215Z,87.00
2019-03-10T16:18:04.551Z,86.70
2019-03-10T16:21:06.816Z,84.00
2019-03-10T16:24:09.109Z,82.10
2019-03-10T16:27:11.351Z,83.90
2019-03-10T16:30:15.228Z,82.60
2019-03-10T16:33:17.532Z,79.90
2019-03-10T16:36:19.808Z,81.40
2019-03-10T16:39:22.091Z,79.50
2019-03-10T16:42:24.342Z,79.00
2019-03-10T16:45:26.628Z,78.90
2019-03-10T16:48:29.306Z,77.00
2019-03-10T16:51:31.627Z,78.10
2019-03-10T16:54:33.905Z,76.50
2019-03-10T16:57:36.247Z,77.80
2019-03-10T17:00:38.600Z,77.60
2019-03-10T17:03:40.828Z,77.00
2019-03-10T17:06:43.164Z,76.40
2019-03-10T17:09:45.437Z,76.30
2019-03-10T17:12:47.767Z,76.00
2019-03-10T17:15:50.037Z,74.90
2019-03-10T17:18:52.351Z,74.10
2019-03-10T17:21:54.659Z,74.40
2019-03-10T17:24:56.992Z,75.40
2019-03-10T17:27:59.240Z,76.10
2019-03-10T17:31:01.523Z,75.60
2019-03-10T17:34:03.905Z,76.80
2019-03-10T17:37:06.175Z,76.90
2019-03-10T17:40:11.107Z,77.20
2019-03-10T17:43:13.336Z,77.30
2019-03-10T17:46:15.709Z,76.50
2019-03-10T17:49:19.043Z,77.40
2019-03-10T17:52:22.664Z,75.20
2019-03-10T17:55:25.454Z,76.00
2019-03-10T17:58:27.940Z,76.30
2019-03-10T18:01:30.959Z,73.50
2019-03-10T18:04:34.343Z,73.10
2019-03-10T18:07:38.791Z,74.30
2019-03-10T18:10:41.867Z,72.50
2019-03-10T18:13:45.623Z,73.80
2019-03-10T18:16:50.508Z,73.40
2019-03-10T18:19:56.424Z,73.20
2019-03-10T18:23:01.382Z,71.90
2019-03-10T18:26:03.753Z,70.90
2019-03-10T18:29:08.069Z,71.30
2019-03-10T18:32:10.667Z,70.50
2019-03-10T18:35:13.849Z,70.80
2019-03-10T18:38:17.821Z,71.80
2019-03-10T18:41:27.420Z,71.70
2019-03-10T18:44:31.230Z,71.10
2019-03-10T18:47:35.927Z,70.70
2019-03-10T18:50:39.533Z,70.60
2019-03-10T18:53:42.756Z,71.20
2019-03-10T18:56:45.529Z,71.00
2019-03-10T18:59:53.804Z,71.50
2019-03-10T19:02:57.642Z,71.30
2019-03-10T19:06:01.006Z,71.50
2019-03-10T19:09:05.260Z,72.50
2019-03-10T19:12:08.143Z,72.90
2019-03-10T19:15:12.592Z,73.00
2019-03-10T19:18:15.481Z,73.10
2019-03-10T19:21:18.692Z,73.70
2019-03-10T19:24:22.483Z,73.90
2019-03-10T19:27:30.167Z,74.70
2019-03-10T19:30:29.828Z,74.50
2019-03-10T19:33:32.666Z,75.00
2019-03-10T19:36:35.710Z,74.30
2019-03-10T19:39:39.950Z,74.60
2019-03-10T19:42:43.769Z,75.30
2019-03-10T19:45:47.740Z,75.90
2019-03-10T19:48:51.203Z,75.70
2019-03-10T19:51:53.669Z,76.60
2019-03-10T19:54:56.881Z,76.80
2019-03-10T19:57:59.359Z,75.80
2019-03-10T20:01:02.091Z,84.40
2019-03-10T20:04:04.721Z,80.90
2019-03-10T20:07:07.291Z,75.80
2019-03-10T20:10:10.839Z,76.00
2019-03-10T20:13:13.201Z,74.90
2019-03-10T20:16:15.638Z,74.60
2019-03-10T20:19:18.273Z,75.40
2019-03-10T20:22:20.775Z,76.00
2019-03-10T20:25:23.945Z,77.30
2019-03-10T20:28:27.527Z,77.50
2019-03-10T20:31:29.870Z,78.00
2019-03-10T20:34:32.385Z,78.10
2019-03-10T20:37:35.105Z,78.20
2019-03-10T20:40:37.484Z,78.10
2019-03-10T20:43:41.053Z,77.30
2019-03-10T20:46:44.311Z,75.70
2019-03-10T20:49:46.972Z,75.60
2019-03-10T20:52:49.389Z,75.20
2019-03-10T20:55:51.803Z,76.00
2019-03-10T20:58:54.126Z,74.70
2019-03-10T21:01:56.387Z,76.50
2019-03-10T21:04:58.602Z,76.00
2019-03-10T21:08:00.875Z,76.70
2019-03-10T21:11:03.421Z,77.30
2019-03-10T21:14:05.644Z,81.70
2019-03-10T21:17:07.873Z,86.80
2019-03-10T21:20:11.675Z,91.10
2019-03-10T21:23:13.897Z,90.70
2019-03-10T21:26:16.143Z,91.30
2019-03-10T21:29:18.430Z,89.90
2019-03-10T21:32:20.719Z,90.40
2019-03-10T21:35:23.044Z,88.50
2019-03-10T21:38:25.295Z,91.10
2019-03-10T21:41:27.585Z,90.70
2019-03-10T21:44:29.993Z,89.20
2019-03-10T21:47:32.283Z,91.10
2019-03-10T21:50:34.526Z,91.20
2019-03-10T21:53:36.786Z,94.30
2019-03-10T21:56:39.024Z,95.20
2019-03-10T21:59:41.260Z,99.90
2019-03-10T22:02:43.523Z,99.90
2019-03-10T22:05:45.788Z,99.90
2019-03-10T22:08:47.999Z,99.90
2019-03-10T22:11:50.220Z,99.90
2019-03-10T22:14:52.523Z,99.90
2019-03-10T22:17:54.783Z,99.90
2019-03-10T22:20:57.039Z,99.90
2019-03-10T22:23:59.899Z,99.90
2019-03-10T22:27:01.587Z,99.90
2019-03-10T22:30:04.277Z,99.90
2019-03-10T22:33:06.519Z,99.90
2019-03-10T22:36:09.082Z,99.90
2019-03-10T22:39:11.327Z,99.90
2019-03-10T22:42:13.618Z,99.90
2019-03-10T22:45:15.883Z,99.90
2019-03-10T22:48:18.172Z,99.90
2019-03-10T22:51:20.414Z,99.90
2019-03-10T22:54:22.676Z,99.90
2019-03-10T22:57:25.007Z,99.90
2019-03-10T23:00:31.878Z,99.90
2019-03-10T23:03:34.150Z,99.80
2019-03-10T23:06:36.398Z,98.20
2019-03-10T23:09:38.651Z,97.20
2019-03-10T23:12:41.129Z,95.80
2019-03-10T23:15:43.665Z,99.10
2019-03-10T23:18:45.930Z,99.90
2019-03-10T23:21:48.303Z,99.90
2019-03-10T23:24:50.608Z,99.20
2019-03-10T23:27:52.983Z,99.60
2019-03-10T23:30:55.311Z,98.30
2019-03-10T23:33:57.584Z,95.40
2019-03-10T23:36:59.944Z,94.20
2019-03-10T23:40:02.215Z,93.10
2019-03-10T23:43:04.534Z,92.20
2019-03-10T23:46:06.800Z,94.50
2019-03-10T23:49:09.038Z,95.30
2019-03-10T23:52:11.308Z,96.80
2019-03-10T23:55:13.622Z,96.10
2019-03-10T23:58:15.873Z,96.40
